createdAt,value
2022-08-20T00:00:41.711Z,21.81
2022-08-20T00:01:41.759Z,21.81
2022-08-20T00:02:41.671Z,21.83
2022-08-20T00:03:44.789Z,21.83
2022-08-20T00:04:41.635Z,21.82
2022-08-20T00:05:41.625Z,21.82
2022-08-20T00:06:41.631Z,21.81
2022-08-20T00:07:41.577Z,21.76
2022-08-20T00:08:41.598Z,21.76
2022-08-20T00:09:41.613Z,21.72
2022-08-20T00:10:41.684Z,21.66
2022-08-20T00:11:41.578Z,21.64
2022-08-20T00:12:41.550Z,21.60
2022-08-20T00:13:41.565Z,21.61
2022-08-20T00:14:41.516Z,21.57
2022-08-20T00:15:41.611Z,21.54
2022-08-20T00:16:41.526Z,21.56
2022-08-20T00:17:41.531Z,21.57
2022-08-20T00:18:41.632Z,21.56
2022-08-20T00:19:41.462Z,21.53
2022-08-20T00:20:41.422Z,21.53
2022-08-20T00:21:41.500Z,21.51
2022-08-20T00:22:41.444Z,21.48
2022-08-20T00:23:41.419Z,21.45
2022-08-20T00:24:41.402Z,21.44
2022-08-20T00:25:41.466Z,21.42
2022-08-20T00:26:52.424Z,21.39
2022-08-20T00:27:41.417Z,21.36
2022-08-20T00:28:41.358Z,21.35
2022-08-20T00:29:41.327Z,21.36
2022-08-20T00:30:41.271Z,21.35
2022-08-20T00:31:40.475Z,21.34
2022-08-20T00:32:41.315Z,21.34
2022-08-20T00:33:41.402Z,21.35
2022-08-20T00:34:41.307Z,21.34
2022-08-20T00:35:41.343Z,21.35
2022-08-20T00:36:41.585Z,21.35
2022-08-20T00:37:41.204Z,21.36
2022-08-20T00:38:41.222Z,21.34
2022-08-20T00:39:41.262Z,21.35
2022-08-20T00:40:41.288Z,21.34
2022-08-20T00:41:41.233Z,21.34
2022-08-20T00:42:41.263Z,21.32
2022-08-20T00:43:41.195Z,21.32
2022-08-20T00:44:41.105Z,21.30
2022-08-20T00:45:41.074Z,21.27
2022-08-20T00:46:41.088Z,21.29
2022-08-20T00:47:41.039Z,21.27
2022-08-20T00:48:41.028Z,21.30
2022-08-20T00:49:41.011Z,21.27
2022-08-20T00:50:41.018Z,21.24
2022-08-20T00:51:41.027Z,21.21
2022-08-20T00:52:41.013Z,21.21
2022-08-20T00:53:41.064Z,21.23
2022-08-20T00:54:41.001Z,21.20
2022-08-20T00:55:40.967Z,21.20
2022-08-20T00:56:40.983Z,21.20
2022-08-20T00:57:51.209Z,21.13
2022-08-20T00:58:40.958Z,21.13
2022-08-20T00:59:40.880Z,21.13
2022-08-20T01:00:40.873Z,21.11
2022-08-20T01:02:52.878Z,21.16
2022-08-20T01:03:53.839Z,21.16
2022-08-20T01:04:53.826Z,21.13
2022-08-20T01:05:53.947Z,21.11
2022-08-20T01:06:53.837Z,21.09
2022-08-20T01:07:53.825Z,21.09
2022-08-20T01:08:53.866Z,21.08
2022-08-20T01:09:58.919Z,21.06
2022-08-20T01:10:53.771Z,21.08
2022-08-20T01:13:06.174Z,21.05
2022-08-20T01:14:06.929Z,21.08
2022-08-20T01:15:07.025Z,21.06
2022-08-20T01:16:06.984Z,21.06
2022-08-20T01:17:07.016Z,21.02
2022-08-20T01:18:06.890Z,20.99
2022-08-20T01:19:06.952Z,20.98
2022-08-20T01:20:06.919Z,20.96
2022-08-20T01:21:06.916Z,20.93
2022-08-20T01:22:06.899Z,20.87
2022-08-20T01:23:06.939Z,20.84
2022-08-20T01:24:06.838Z,20.77
2022-08-20T01:25:06.799Z,20.76
2022-08-20T01:26:06.789Z,20.69
2022-08-20T01:27:06.779Z,20.64
2022-08-20T01:28:06.782Z,20.59
2022-08-20T01:29:06.762Z,20.53
2022-08-20T01:30:06.961Z,20.49
2022-08-20T01:31:06.725Z,20.47
2022-08-20T01:32:06.733Z,20.47
2022-08-20T01:33:06.710Z,20.47
2022-08-20T01:34:06.731Z,20.47
2022-08-20T01:35:06.676Z,20.47
2022-08-20T01:36:06.652Z,20.46
2022-08-20T01:37:06.649Z,20.43
2022-08-20T01:38:06.727Z,20.42
2022-08-20T01:39:06.680Z,20.43
2022-08-20T01:40:06.654Z,20.41
2022-08-20T01:41:06.653Z,20.47
2022-08-20T01:42:05.580Z,20.46
2022-08-20T01:43:06.574Z,20.47
2022-08-20T01:44:06.564Z,20.47
2022-08-20T01:45:06.533Z,20.49
2022-08-20T01:46:06.559Z,20.50
2022-08-20T01:47:06.545Z,20.47
2022-08-20T01:48:06.506Z,20.47
2022-08-20T01:49:06.548Z,20.49
2022-08-20T01:50:06.467Z,20.46
2022-08-20T01:51:06.528Z,20.49
2022-08-20T01:52:06.473Z,20.51
2022-08-20T01:53:06.908Z,20.50
2022-08-20T01:54:06.434Z,20.50
2022-08-20T01:55:06.448Z,20.51
2022-08-20T01:56:06.401Z,20.54
2022-08-20T01:57:06.387Z,20.53
2022-08-20T01:58:06.378Z,20.53
2022-08-20T01:59:06.441Z,20.53
2022-08-20T02:00:06.581Z,20.53
2022-08-20T02:01:06.396Z,20.51
2022-08-20T02:02:06.316Z,20.51
2022-08-20T02:03:06.372Z,20.49
2022-08-20T02:04:06.338Z,20.49
2022-08-20T02:05:06.328Z,20.47
2022-08-20T02:06:06.310Z,20.46
2022-08-20T02:07:06.255Z,20.42
2022-08-20T02:08:06.261Z,20.41
2022-08-20T02:09:06.247Z,20.39
2022-08-20T02:10:06.236Z,20.38
2022-08-20T02:11:06.212Z,20.35
2022-08-20T02:12:06.187Z,20.35
2022-08-20T02:13:06.248Z,20.34
2022-08-20T02:14:06.218Z,20.35
2022-08-20T02:15:06.142Z,20.38
2022-08-20T02:16:06.145Z,20.34
2022-08-20T02:17:06.138Z,20.35
2022-08-20T02:18:08.105Z,20.33
2022-08-20T02:19:06.103Z,20.34
2022-08-20T02:20:06.104Z,20.34
2022-08-20T02:21:06.125Z,20.34
2022-08-20T02:22:06.056Z,20.31
2022-08-20T02:23:06.069Z,20.33
2022-08-20T02:24:06.035Z,20.31
2022-08-20T02:25:06.043Z,20.30
2022-08-20T02:26:05.996Z,20.28
2022-08-20T02:27:04.979Z,20.31
2022-08-20T02:28:05.989Z,20.30
2022-08-20T02:29:05.961Z,20.28
2022-08-20T02:30:05.954Z,20.27
2022-08-20T02:31:05.970Z,20.27
2022-08-20T02:32:32.290Z,20.24
2022-08-20T02:33:05.920Z,20.23
2022-08-20T02:34:22.337Z,20.23
2022-08-20T02:35:05.958Z,20.21
2022-08-20T02:36:05.866Z,20.23
2022-08-20T02:37:05.860Z,20.25
2022-08-20T02:38:05.857Z,20.25
2022-08-20T02:39:05.932Z,20.23
2022-08-20T02:40:05.842Z,20.21
2022-08-20T02:41:05.819Z,20.20
2022-08-20T02:42:05.822Z,20.21
2022-08-20T02:43:05.791Z,20.21
2022-08-20T02:44:05.783Z,20.21
2022-08-20T02:45:05.820Z,20.20
2022-08-20T02:46:05.765Z,20.23
2022-08-20T02:47:05.784Z,20.21
2022-08-20T02:48:05.733Z,20.23
2022-08-20T02:49:05.695Z,20.23
2022-08-20T02:50:07.782Z,20.20
2022-08-20T02:51:05.697Z,20.20
2022-08-20T02:52:05.703Z,20.16
2022-08-20T02:53:05.663Z,20.16
2022-08-20T02:54:05.625Z,20.15
2022-08-20T02:55:05.627Z,20.12
2022-08-20T02:56:05.642Z,20.10
2022-08-20T02:57:05.645Z,20.05
2022-08-20T02:58:05.570Z,20.02
2022-08-20T02:59:05.611Z,20.03
2022-08-20T03:00:05.569Z,20.00
2022-08-20T03:01:05.634Z,20.00
2022-08-20T03:02:05.533Z,20.03
2022-08-20T03:03:05.532Z,20.02
2022-08-20T03:04:05.506Z,19.97
2022-08-20T03:05:05.490Z,19.97
2022-08-20T03:06:05.501Z,19.97
2022-08-20T03:07:05.480Z,19.98
2022-08-20T03:08:05.524Z,19.95
2022-08-20T03:09:05.451Z,19.98
2022-08-20T03:10:05.432Z,19.98
2022-08-20T03:11:05.428Z,19.95
2022-08-20T03:12:05.417Z,19.94
2022-08-20T03:13:05.446Z,19.94
2022-08-20T03:14:05.401Z,19.91
2022-08-20T03:15:05.363Z,19.93
2022-08-20T03:16:05.373Z,19.91
2022-08-20T03:17:05.348Z,19.93
2022-08-20T03:18:05.327Z,19.94
2022-08-20T03:19:05.336Z,19.90
2022-08-20T03:20:05.286Z,19.90
2022-08-20T03:21:05.279Z,19.88
2022-08-20T03:22:05.293Z,19.87
2022-08-20T03:23:05.305Z,19.84
2022-08-20T03:24:05.300Z,19.83
2022-08-20T03:25:05.258Z,19.83
2022-08-20T03:26:05.232Z,19.83
2022-08-20T03:27:05.210Z,19.83
2022-08-20T03:28:05.229Z,19.83
2022-08-20T03:29:05.185Z,19.84
2022-08-20T03:30:05.162Z,19.79
2022-08-20T03:31:05.194Z,19.79
2022-08-20T03:32:07.755Z,19.79
2022-08-20T03:33:05.153Z,19.76
2022-08-20T03:34:05.166Z,19.73
2022-08-20T03:35:05.138Z,19.75
2022-08-20T03:36:05.094Z,19.75
2022-08-20T03:37:05.073Z,19.75
2022-08-20T03:38:05.140Z,19.72
2022-08-20T03:39:05.094Z,19.72
2022-08-20T03:40:05.073Z,19.73
2022-08-20T03:41:05.047Z,19.70
2022-08-20T03:42:05.066Z,19.72
2022-08-20T03:43:05.037Z,19.72
2022-08-20T03:44:05.027Z,19.70
2022-08-20T03:45:04.976Z,19.70
2022-08-20T03:46:04.958Z,19.72
2022-08-20T03:47:05.017Z,19.69
2022-08-20T03:48:04.961Z,19.69
2022-08-20T03:49:04.931Z,19.70
2022-08-20T03:50:04.900Z,19.69
2022-08-20T03:51:04.882Z,19.68
2022-08-20T03:52:04.900Z,19.68
2022-08-20T03:53:04.873Z,19.68
2022-08-20T03:54:04.906Z,19.69
2022-08-20T03:55:07.062Z,19.68
2022-08-20T03:56:04.824Z,19.69
2022-08-20T03:57:13.018Z,19.69
2022-08-20T03:58:04.805Z,19.66
2022-08-20T03:59:04.776Z,19.72
2022-08-20T04:00:04.787Z,19.68
2022-08-20T04:01:04.816Z,19.66
2022-08-20T04:02:04.806Z,19.66
2022-08-20T04:03:04.741Z,19.66
2022-08-20T04:04:05.709Z,19.66
2022-08-20T04:05:04.723Z,19.66
2022-08-20T04:06:04.691Z,19.68
2022-08-20T04:07:04.700Z,19.70
2022-08-20T04:08:04.688Z,19.69
2022-08-20T04:09:04.643Z,19.70
2022-08-20T04:10:04.630Z,19.69
2022-08-20T04:11:04.678Z,19.69
2022-08-20T04:12:04.679Z,19.70
2022-08-20T04:13:04.604Z,19.69
2022-08-20T04:14:04.713Z,19.69
2022-08-20T04:15:04.581Z,19.70
2022-08-20T04:16:04.561Z,19.70
2022-08-20T04:17:04.544Z,19.68
2022-08-20T04:18:04.526Z,19.72
2022-08-20T04:19:04.525Z,19.69
2022-08-20T04:20:04.529Z,19.70
2022-08-20T04:21:04.505Z,19.69
2022-08-20T04:22:04.485Z,19.72
2022-08-20T04:23:04.519Z,19.72
2022-08-20T04:24:04.464Z,19.72
2022-08-20T04:25:04.458Z,19.75
2022-08-20T04:26:04.432Z,19.73
2022-08-20T04:27:04.411Z,19.72
2022-08-20T04:28:04.443Z,19.73
2022-08-20T04:29:04.386Z,19.70
2022-08-20T04:30:04.409Z,19.70
2022-08-20T04:31:04.361Z,19.73
2022-08-20T04:32:05.905Z,19.73
2022-08-20T04:33:04.368Z,19.70
2022-08-20T04:34:04.345Z,19.73
2022-08-20T04:35:04.308Z,19.72
2022-08-20T04:36:04.355Z,19.73
2022-08-20T04:37:04.363Z,19.72
2022-08-20T04:38:04.318Z,19.72
2022-08-20T04:39:04.254Z,19.73
2022-08-20T04:40:04.278Z,19.75
2022-08-20T04:41:04.247Z,19.75
2022-08-20T04:42:04.203Z,19.75
2022-08-20T04:43:04.259Z,19.73
2022-08-20T04:44:04.205Z,19.72
2022-08-20T04:45:04.175Z,19.73
2022-08-20T04:46:04.210Z,19.75
2022-08-20T04:47:04.169Z,19.76
2022-08-20T04:48:04.230Z,19.76
2022-08-20T04:49:04.149Z,19.76
2022-08-20T04:50:04.198Z,19.76
2022-08-20T04:51:04.104Z,19.73
2022-08-20T04:52:04.083Z,19.73
2022-08-20T04:53:04.123Z,19.72
2022-08-20T04:54:04.112Z,19.75
2022-08-20T04:55:04.118Z,19.72
2022-08-20T04:56:04.044Z,19.72
2022-08-20T04:57:04.072Z,19.73
2022-08-20T04:58:03.053Z,19.72
2022-08-20T04:59:04.016Z,19.75
2022-08-20T05:00:03.989Z,19.76
2022-08-20T05:01:04.049Z,19.78
2022-08-20T05:02:03.980Z,19.76
2022-08-20T05:03:03.993Z,19.78
2022-08-20T05:04:03.937Z,19.79
2022-08-20T05:05:03.909Z,19.75
2022-08-20T05:06:03.929Z,19.76
2022-08-20T05:07:03.907Z,19.73
2022-08-20T05:08:05.483Z,19.75
2022-08-20T05:09:03.883Z,19.75
2022-08-20T05:10:03.883Z,19.78
2022-08-20T05:11:32.878Z,19.76
2022-08-20T05:12:03.898Z,19.73
2022-08-20T05:13:03.883Z,19.72
2022-08-20T05:14:03.865Z,19.76
2022-08-20T05:15:03.817Z,19.75
2022-08-20T05:16:04.546Z,19.72
2022-08-20T05:17:03.762Z,19.70
2022-08-20T05:18:03.810Z,19.72
2022-08-20T05:19:03.801Z,19.70
2022-08-20T05:20:03.766Z,19.69
2022-08-20T05:21:03.702Z,19.72
2022-08-20T05:22:03.713Z,19.73
2022-08-20T05:23:03.733Z,19.73
2022-08-20T05:24:03.711Z,19.75
2022-08-20T05:25:03.721Z,19.75
2022-08-20T05:26:03.689Z,19.76
2022-08-20T05:27:03.634Z,19.76
2022-08-20T05:28:03.637Z,19.76
2022-08-20T05:29:03.691Z,19.80
2022-08-20T05:30:03.654Z,19.83
2022-08-20T05:31:03.568Z,19.84
2022-08-20T05:32:03.593Z,19.86
2022-08-20T05:33:03.548Z,19.88
2022-08-20T05:34:03.548Z,19.90
2022-08-20T05:35:03.611Z,19.90
2022-08-20T05:36:03.734Z,19.91
2022-08-20T05:37:03.502Z,19.93
2022-08-20T05:38:03.546Z,19.91
2022-08-20T05:39:03.563Z,19.93
2022-08-20T05:40:03.530Z,19.95
2022-08-20T05:41:03.504Z,19.95
2022-08-20T05:42:03.502Z,19.97
2022-08-20T05:43:03.454Z,19.97
2022-08-20T05:44:03.561Z,19.98
2022-08-20T05:45:03.407Z,19.98
2022-08-20T05:46:03.435Z,20.00
2022-08-20T05:47:04.213Z,20.02
2022-08-20T05:48:03.587Z,20.03
2022-08-20T05:49:03.402Z,20.10
2022-08-20T05:50:03.339Z,20.09
2022-08-20T05:51:03.319Z,20.12
2022-08-20T05:52:03.322Z,20.15
2022-08-20T05:53:03.310Z,20.20
2022-08-20T05:54:03.351Z,20.23
2022-08-20T05:55:03.269Z,20.20
2022-08-20T05:56:03.289Z,20.23
2022-08-20T05:57:03.270Z,20.24
2022-08-20T05:58:03.277Z,20.21
2022-08-20T05:59:03.263Z,20.25
2022-08-20T06:00:03.212Z,20.25
2022-08-20T06:01:03.209Z,20.28
2022-08-20T06:02:03.209Z,20.31
2022-08-20T06:03:03.148Z,20.35
2022-08-20T06:04:03.266Z,20.35
2022-08-20T06:05:03.196Z,20.35
2022-08-20T06:06:03.115Z,20.38
2022-08-20T06:07:03.211Z,20.34
2022-08-20T06:08:07.245Z,20.30
2022-08-20T06:09:03.113Z,20.28
2022-08-20T06:10:03.162Z,20.31
2022-08-20T06:11:03.045Z,20.31
2022-08-20T06:12:03.183Z,20.33
2022-08-20T06:13:03.056Z,20.33
2022-08-20T06:14:03.053Z,20.39
2022-08-20T06:15:02.989Z,20.34
2022-08-20T06:16:03.111Z,20.35
2022-08-20T06:17:03.018Z,20.41
2022-08-20T06:18:05.171Z,20.39
2022-08-20T06:19:03.429Z,20.41
2022-08-20T06:20:03.087Z,20.41
2022-08-20T06:21:02.954Z,20.46
2022-08-20T06:22:06.861Z,20.49
2022-08-20T06:23:02.991Z,20.49
2022-08-20T06:24:02.940Z,20.51
2022-08-20T06:25:02.936Z,20.56
2022-08-20T06:26:02.954Z,20.58
2022-08-20T06:27:02.883Z,20.53
2022-08-20T06:28:02.873Z,20.56
2022-08-20T06:29:02.879Z,20.59
2022-08-20T06:30:02.871Z,20.65
2022-08-20T06:31:02.922Z,20.69
2022-08-20T06:32:02.847Z,20.68
2022-08-20T06:33:02.801Z,20.71
2022-08-20T06:34:02.843Z,20.80
2022-08-20T06:35:03.643Z,20.84
2022-08-20T06:36:02.782Z,20.90
2022-08-20T06:37:02.875Z,20.96
2022-08-20T06:38:02.767Z,21.02
2022-08-20T06:39:02.714Z,21.04
2022-08-20T06:40:03.009Z,21.02
2022-08-20T06:41:02.742Z,21.05
2022-08-20T06:42:02.690Z,20.98
2022-08-20T06:43:02.818Z,20.87
2022-08-20T06:44:03.548Z,20.89
2022-08-20T06:45:03.558Z,20.95
2022-08-20T06:46:02.652Z,21.04
2022-08-20T06:47:02.637Z,21.16
2022-08-20T06:48:02.619Z,21.17
2022-08-20T06:49:02.602Z,21.27
2022-08-20T06:50:02.808Z,21.34
2022-08-20T06:51:02.784Z,21.39
2022-08-20T06:52:02.582Z,21.36
2022-08-20T06:53:02.632Z,21.38
2022-08-20T06:54:02.635Z,21.39
2022-08-20T06:55:02.607Z,21.48
2022-08-20T06:56:02.533Z,21.64
2022-08-20T06:57:02.510Z,21.72
2022-08-20T06:58:02.523Z,21.78
2022-08-20T06:59:02.511Z,21.79
2022-08-20T07:00:02.484Z,21.90
2022-08-20T07:01:05.169Z,21.98
2022-08-20T07:02:02.559Z,22.07
2022-08-20T07:03:02.403Z,22.09
2022-08-20T07:04:02.465Z,21.97
2022-08-20T07:05:02.488Z,21.94
2022-08-20T07:06:02.418Z,21.91
2022-08-20T07:07:02.405Z,21.85
2022-08-20T07:08:02.469Z,21.82
2022-08-20T07:09:02.394Z,21.82
2022-08-20T07:10:02.505Z,21.85
2022-08-20T07:11:02.320Z,21.85
2022-08-20T07:12:02.383Z,21.92
2022-08-20T07:13:02.331Z,21.83
2022-08-20T07:14:02.377Z,21.74
2022-08-20T07:15:02.294Z,21.69
2022-08-20T07:16:02.275Z,21.57
2022-08-20T07:17:02.227Z,21.50
2022-08-20T07:18:02.268Z,21.42
2022-08-20T07:19:02.273Z,21.36
2022-08-20T07:20:02.311Z,21.32
2022-08-20T07:21:02.284Z,21.26
2022-08-20T07:22:02.262Z,21.23
2022-08-20T07:23:02.203Z,21.19
2022-08-20T07:24:02.189Z,21.14
2022-08-20T07:25:02.239Z,21.04
2022-08-20T07:26:02.182Z,21.06
2022-08-20T07:27:02.148Z,21.04
2022-08-20T07:28:02.246Z,20.99
2022-08-20T07:29:02.286Z,20.96
2022-08-20T07:30:02.105Z,21.01
2022-08-20T07:31:12.137Z,21.04
2022-08-20T07:32:02.055Z,21.09
2022-08-20T07:33:02.097Z,21.08
2022-08-20T07:34:02.127Z,21.05
2022-08-20T07:35:02.187Z,21.08
2022-08-20T07:36:02.023Z,21.13
2022-08-20T07:37:02.064Z,21.14
2022-08-20T07:38:02.095Z,21.19
2022-08-20T07:39:05.970Z,21.21
2022-08-20T07:40:02.031Z,21.27
2022-08-20T07:41:02.027Z,21.36
2022-08-20T07:42:01.896Z,21.38
2022-08-20T07:43:02.001Z,21.41
2022-08-20T07:44:01.906Z,21.46
2022-08-20T07:45:01.944Z,21.53
2022-08-20T07:46:01.992Z,21.57
2022-08-20T07:47:01.915Z,21.63
2022-08-20T07:48:01.892Z,21.69
2022-08-20T07:49:01.864Z,21.76
2022-08-20T07:50:01.832Z,21.83
2022-08-20T07:51:01.854Z,21.92
2022-08-20T07:52:01.948Z,21.99
2022-08-20T07:53:01.899Z,21.94
2022-08-20T07:54:01.783Z,21.75
2022-08-20T07:55:01.829Z,21.69
2022-08-20T07:56:01.957Z,21.61
2022-08-20T07:57:01.793Z,21.66
2022-08-20T07:58:01.694Z,21.72
2022-08-20T07:59:01.649Z,21.75
2022-08-20T08:00:01.709Z,21.82
2022-08-20T08:01:01.884Z,21.95
2022-08-20T08:02:01.688Z,21.99
2022-08-20T08:03:01.631Z,22.02
2022-08-20T08:04:01.663Z,22.04
2022-08-20T08:05:01.604Z,21.99
2022-08-20T08:06:01.689Z,21.95
2022-08-20T08:07:01.564Z,21.91
2022-08-20T08:08:25.556Z,21.92
2022-08-20T08:09:01.519Z,21.94
2022-08-20T08:10:01.781Z,21.97
2022-08-20T08:11:01.619Z,21.99
2022-08-20T08:12:02.591Z,22.01
2022-08-20T08:13:23.191Z,21.97
2022-08-20T08:14:01.607Z,21.97
2022-08-20T08:15:01.582Z,21.94
2022-08-20T08:16:01.539Z,21.88
2022-08-20T08:17:01.491Z,21.85
2022-08-20T08:18:01.479Z,21.79
2022-08-20T08:19:01.422Z,21.75
2022-08-20T08:20:01.465Z,21.69
2022-08-20T08:21:01.456Z,21.66
2022-08-20T08:22:01.456Z,21.67
2022-08-20T08:23:01.387Z,21.76
2022-08-20T08:24:01.295Z,21.82
2022-08-20T08:25:01.376Z,21.95
2022-08-20T08:26:01.436Z,22.06
2022-08-20T08:27:01.307Z,22.19
2022-08-20T08:28:01.428Z,22.35
2022-08-20T08:29:01.294Z,22.47
2022-08-20T08:30:01.279Z,22.56
2022-08-20T08:31:01.243Z,22.65
2022-08-20T08:32:01.355Z,22.72
2022-08-20T08:33:01.255Z,22.86
2022-08-20T08:34:01.208Z,23.01
2022-08-20T08:35:01.233Z,23.15
2022-08-20T08:36:01.309Z,23.27
2022-08-20T08:37:01.196Z,23.43
2022-08-20T08:38:01.135Z,23.52
2022-08-20T08:39:01.213Z,23.62
2022-08-20T08:40:01.212Z,23.67
2022-08-20T08:41:01.190Z,23.76
2022-08-20T08:42:01.259Z,23.77
2022-08-20T08:43:01.107Z,23.72
2022-08-20T08:44:01.108Z,23.61
2022-08-20T08:45:01.059Z,23.55
2022-08-20T08:46:01.154Z,23.47
2022-08-20T08:47:01.043Z,23.40
2022-08-20T08:48:01.052Z,23.40
2022-08-20T08:49:01.072Z,23.32
2022-08-20T08:50:00.987Z,23.31
2022-08-20T08:51:01.012Z,23.29
2022-08-20T08:52:01.118Z,23.22
2022-08-20T08:53:00.906Z,23.20
2022-08-20T08:54:06.463Z,23.07
2022-08-20T08:55:00.932Z,23.05
2022-08-20T08:56:01.007Z,23.02
2022-08-20T08:57:08.745Z,23.04
2022-08-20T08:58:00.913Z,23.01
2022-08-20T08:59:00.848Z,22.97
2022-08-20T09:00:04.893Z,22.90
2022-08-20T09:01:01.960Z,23.01
2022-08-20T09:02:00.973Z,23.14
2022-08-20T09:03:01.904Z,23.20
2022-08-20T09:04:00.821Z,23.27
2022-08-20T09:05:00.897Z,23.24
2022-08-20T09:06:00.768Z,23.24
2022-08-20T09:07:00.750Z,23.27
2022-08-20T09:08:00.710Z,23.34
2022-08-20T09:09:00.722Z,23.40
2022-08-20T09:10:00.777Z,23.47
2022-08-20T09:11:00.728Z,23.52
2022-08-20T09:12:00.749Z,23.58
2022-08-20T09:13:00.722Z,23.71
2022-08-20T09:14:00.794Z,23.82
2022-08-20T09:15:00.674Z,23.86
2022-08-20T09:16:00.687Z,24.00
2022-08-20T09:17:00.677Z,24.01
2022-08-20T09:18:00.665Z,24.02
2022-08-20T09:19:00.641Z,24.02
2022-08-20T09:20:00.585Z,24.01
2022-08-20T09:21:00.567Z,24.08
2022-08-20T09:22:00.572Z,24.16
2022-08-20T09:23:00.532Z,24.29
2022-08-20T09:24:00.506Z,24.34
2022-08-20T09:25:00.564Z,24.35
2022-08-20T09:26:00.543Z,24.22
2022-08-20T09:27:00.576Z,24.13
2022-08-20T09:28:00.470Z,24.01
2022-08-20T09:29:00.504Z,23.87
2022-08-20T09:30:00.451Z,23.85
2022-08-20T09:31:00.444Z,23.82
2022-08-20T09:32:00.434Z,23.83
2022-08-20T09:33:00.379Z,23.82
2022-08-20T09:34:00.416Z,23.87
2022-08-20T09:35:00.478Z,23.89
2022-08-20T09:36:00.396Z,23.87
2022-08-20T09:37:00.504Z,23.90
2022-08-20T09:38:00.333Z,23.94
2022-08-20T09:39:00.343Z,23.92
2022-08-20T09:40:00.385Z,24.00
2022-08-20T09:41:00.350Z,24.07
2022-08-20T09:42:00.309Z,24.20
2022-08-20T09:43:00.242Z,24.24
2022-08-20T09:44:00.305Z,24.38
2022-08-20T09:45:00.261Z,24.50
2022-08-20T09:46:00.222Z,24.63
2022-08-20T09:47:00.264Z,24.67
2022-08-20T09:48:00.394Z,24.79
2022-08-20T09:49:00.238Z,25.01
2022-08-20T09:50:00.180Z,25.09
2022-08-20T09:51:00.172Z,25.27
2022-08-20T09:52:00.207Z,25.44
2022-08-20T09:53:00.198Z,25.64
2022-08-20T09:54:00.166Z,25.82
2022-08-20T09:55:00.148Z,25.91
2022-08-20T09:56:00.066Z,25.99
2022-08-20T09:57:00.076Z,26.18
2022-08-20T09:58:00.094Z,26.29
2022-08-20T09:59:02.879Z,26.29
2022-08-20T10:00:00.013Z,26.32
2022-08-20T10:01:00.050Z,26.24
2022-08-20T10:02:00.045Z,26.15
2022-08-20T10:02:59.990Z,26.17
2022-08-20T10:04:00.008Z,26.08
2022-08-20T10:04:59.976Z,25.97
2022-08-20T10:05:59.950Z,25.91
2022-08-20T10:06:59.979Z,25.74
2022-08-20T10:07:59.983Z,25.65
2022-08-20T10:08:59.961Z,25.56
2022-08-20T10:09:59.924Z,25.39
2022-08-20T10:11:01.254Z,25.28
2022-08-20T10:11:59.926Z,25.06
2022-08-20T10:12:59.894Z,24.98
2022-08-20T10:13:59.917Z,24.97
2022-08-20T10:14:59.853Z,24.97
2022-08-20T10:15:59.849Z,24.90
2022-08-20T10:17:00.160Z,24.97
2022-08-20T10:17:59.815Z,24.90
2022-08-20T10:18:59.807Z,24.79
2022-08-20T10:19:59.784Z,24.71
2022-08-20T10:20:59.778Z,24.68
2022-08-20T10:21:59.791Z,24.60
2022-08-20T10:22:59.754Z,24.68
2022-08-20T10:23:59.720Z,24.80
2022-08-20T10:24:59.776Z,24.83
2022-08-20T10:25:59.704Z,24.90
2022-08-20T10:26:59.723Z,25.02
2022-08-20T10:27:59.664Z,25.07
2022-08-20T10:28:59.636Z,25.06
2022-08-20T10:29:59.670Z,25.12
2022-08-20T10:30:59.622Z,25.12
2022-08-20T10:31:59.604Z,25.06
2022-08-20T10:32:59.749Z,25.02
2022-08-20T10:33:59.574Z,25.05
2022-08-20T10:34:59.570Z,25.06
2022-08-20T10:36:00.266Z,24.92
2022-08-20T10:36:59.587Z,24.92
2022-08-20T10:37:59.560Z,24.97
2022-08-20T10:38:59.558Z,24.95
2022-08-20T10:39:59.598Z,24.95
2022-08-20T10:40:59.509Z,25.00
2022-08-20T10:41:59.503Z,25.13
2022-08-20T10:42:59.490Z,25.20
2022-08-20T10:43:59.437Z,25.17
2022-08-20T10:44:59.470Z,25.25
2022-08-20T10:45:59.407Z,25.25
2022-08-20T10:46:59.455Z,25.27
2022-08-20T10:47:59.441Z,25.17
2022-08-20T10:48:59.441Z,25.30
2022-08-20T10:49:59.374Z,25.42
2022-08-20T10:50:59.388Z,25.65
2022-08-20T10:51:59.367Z,25.91
2022-08-20T10:52:59.378Z,26.09
2022-08-20T10:53:59.306Z,26.29
2022-08-20T10:54:59.294Z,26.50
2022-08-20T10:55:59.283Z,26.73
2022-08-20T10:56:59.322Z,26.92
2022-08-20T10:57:59.329Z,27.01
2022-08-20T10:58:59.336Z,26.92
2022-08-20T10:59:59.276Z,26.87
2022-08-20T11:00:59.272Z,26.54
2022-08-20T11:01:59.319Z,26.31
2022-08-20T11:02:59.268Z,26.20
2022-08-20T11:03:59.225Z,26.05
2022-08-20T11:04:59.196Z,25.89
2022-08-20T11:05:59.153Z,25.68
2022-08-20T11:06:59.199Z,25.62
2022-08-20T11:07:59.231Z,25.57
2022-08-20T11:08:59.109Z,25.53
2022-08-20T11:09:59.130Z,25.46
2022-08-20T11:10:59.151Z,25.32
2022-08-20T11:11:59.071Z,25.15
2022-08-20T11:12:59.067Z,25.12
2022-08-20T11:13:59.067Z,24.95
2022-08-20T11:14:59.035Z,24.88
2022-08-20T11:15:59.057Z,24.75
2022-08-20T11:16:59.058Z,24.69
2022-08-20T11:17:59.249Z,24.63
2022-08-20T11:18:58.975Z,24.64
2022-08-20T11:19:58.965Z,24.61
2022-08-20T11:20:58.988Z,24.59
2022-08-20T11:21:58.938Z,24.52
2022-08-20T11:23:00.878Z,24.49
2022-08-20T11:24:02.769Z,24.52
2022-08-20T11:24:58.897Z,24.47
2022-08-20T11:25:58.896Z,24.49
2022-08-20T11:26:58.898Z,24.50
2022-08-20T11:27:59.055Z,24.47
2022-08-20T11:28:58.874Z,24.56
2022-08-20T11:29:58.822Z,24.67
2022-08-20T11:30:58.821Z,24.75
2022-08-20T11:31:58.834Z,24.77
2022-08-20T11:32:57.812Z,24.90
2022-08-20T11:33:58.792Z,25.01
2022-08-20T11:34:58.826Z,25.07
2022-08-20T11:35:58.838Z,25.10
2022-08-20T11:36:58.783Z,25.15
2022-08-20T11:37:59.021Z,25.19
2022-08-20T11:38:58.770Z,25.22
2022-08-20T11:39:58.778Z,25.35
2022-08-20T11:40:58.689Z,25.49
2022-08-20T11:41:58.670Z,25.47
2022-08-20T11:43:14.191Z,25.38
2022-08-20T11:44:20.190Z,25.22
2022-08-20T11:44:58.666Z,25.01
2022-08-20T11:45:58.658Z,24.95
2022-08-20T11:46:58.692Z,24.85
2022-08-20T11:47:58.793Z,24.68
2022-08-20T11:48:58.653Z,24.52
2022-08-20T11:49:58.582Z,24.29
2022-08-20T11:50:59.079Z,24.08
2022-08-20T11:51:58.561Z,23.94
2022-08-20T11:52:58.545Z,23.82
2022-08-20T11:53:58.562Z,23.68
2022-08-20T11:54:58.581Z,23.52
2022-08-20T11:55:58.488Z,23.40
2022-08-20T11:56:58.522Z,23.39
2022-08-20T11:57:58.491Z,23.42
2022-08-20T11:58:58.482Z,23.45
2022-08-20T11:59:58.528Z,23.43
2022-08-20T12:00:58.499Z,23.42
2022-08-20T12:02:02.288Z,23.38
2022-08-20T12:02:58.603Z,23.27
2022-08-20T12:03:58.381Z,23.15
2022-08-20T12:04:58.394Z,23.08
2022-08-20T12:05:58.343Z,22.96
2022-08-20T12:06:58.342Z,22.89
2022-08-20T12:07:58.321Z,22.92
2022-08-20T12:08:58.384Z,23.01
2022-08-20T12:09:58.290Z,23.12
2022-08-20T12:10:58.315Z,23.32
2022-08-20T12:11:58.265Z,23.53
2022-08-20T12:12:58.634Z,23.64
2022-08-20T12:13:58.238Z,23.77
2022-08-20T12:14:58.244Z,23.82
2022-08-20T12:15:58.236Z,23.86
2022-08-20T12:16:58.211Z,23.97
2022-08-20T12:17:58.230Z,24.12
2022-08-20T12:18:58.279Z,24.23
2022-08-20T12:19:59.108Z,24.31
2022-08-20T12:21:21.777Z,24.23
2022-08-20T12:21:58.187Z,24.19
2022-08-20T12:23:28.293Z,24.13
2022-08-20T12:23:58.155Z,24.08
2022-08-20T12:24:58.146Z,24.02
2022-08-20T12:25:59.250Z,24.04
2022-08-20T12:26:58.076Z,24.01
2022-08-20T12:27:58.099Z,24.01
2022-08-20T12:28:58.055Z,24.14
2022-08-20T12:29:58.032Z,24.23
2022-08-20T12:30:58.026Z,24.32
2022-08-20T12:31:58.009Z,24.44
2022-08-20T12:32:58.281Z,24.61
2022-08-20T12:33:58.026Z,24.76
2022-08-20T12:34:57.974Z,24.79
2022-08-20T12:35:57.950Z,24.77
2022-08-20T12:36:58.004Z,24.85
2022-08-20T12:37:58.167Z,24.90
2022-08-20T12:38:57.914Z,24.82
2022-08-20T12:39:57.922Z,24.82
2022-08-20T12:40:57.881Z,24.88
2022-08-20T12:41:57.919Z,24.85
2022-08-20T12:42:58.149Z,24.83
2022-08-20T12:43:57.897Z,24.80
2022-08-20T12:44:57.831Z,24.82
2022-08-20T12:45:57.860Z,24.87
2022-08-20T12:46:57.809Z,24.88
2022-08-20T12:47:57.798Z,24.95
2022-08-20T12:48:57.796Z,24.98
2022-08-20T12:49:57.794Z,25.00
2022-08-20T12:50:57.754Z,25.10
2022-08-20T12:51:57.744Z,25.22
2022-08-20T12:52:57.990Z,25.34
2022-08-20T12:53:57.731Z,25.34
2022-08-20T12:54:57.759Z,25.43